Latest Weather Observations for Groote Eylandt Airport

IDD60801

Issued at 10:02 am CST Saturday 20 December 2014 (issued every 30 minutes, with the page automatically refreshed every 10 minutes)

About weather observations | Map of weather stations | Latest weather observations for NT | Other Formats
Station Details ID: 014518 Name: GROOTE EYLANDT AIRPORT Lat: -13.97 Lon: 136.46 Height: 13.7 m
Data from the previous 72 hours. | See also: Recent months at Groote Eylandt Airport
Date/Time
CST
Temp
°C
App
Temp
°C
Dew
Point
Rel
Hum
%
Delta-T
°C
Wind Press
QNH
hPa
Press
MSL
hPa
Rain
since 9 am
mm
Dir
 
Spd
km/h
Gust
km/h
Spd
kts
Gust
kts
20/10:00am 31.6 35.9 25.5 70 4.3 WNW 13 20 7 11 1009.5 1009.4 0.0
20/09:30am 31.3 35.5 25.4 71 4.2 W 13 20 7 11 1009.7 1009.6 0.0
20/09:00am 30.8 34.0 24.9 71 4.2 WNW 17 24 9 13 1009.9 1009.8 19.0
20/08:30am 30.5 33.7 24.9 72 3.9 WNW 17 22 9 12 1009.8 1009.7 19.0
20/08:00am 30.4 34.3 26.1 78 3.1 NW 17 24 9 13 1009.9 1009.8 19.0
20/07:30am 29.9 33.5 25.6 78 3.0 NW 17 20 9 11 1009.8 1009.7 19.0
20/07:00am 29.7 33.2 25.4 78 3.0 NW 17 20 9 11 1009.5 1009.4 19.0
20/06:30am 26.5 33.6 26.0 97 0.4 CALM 0 0 0 0 1009.2 1009.1 19.0
20/06:00am 25.8 32.6 25.5 98 0.2 CALM 0 0 0 0 1008.8 1008.7 19.0
20/05:30am 26.0 32.9 25.7 98 0.2 CALM 0 0 0 0 1008.1 1008.0 19.0
20/05:00am 26.4 33.6 26.1 98 0.2 CALM 0 0 0 0 1007.8 1007.7 19.0
20/04:30am 26.2 33.2 25.9 98 0.2 CALM 0 0 0 0 1007.8 1007.7 19.0
20/04:00am 26.2 33.2 25.9 98 0.2 CALM 0 0 0 0 1007.7 1007.6 19.0
20/03:30am 26.5 33.6 26.0 97 0.4 CALM 0 0 0 0 1007.6 1007.5 19.0
20/03:00am 27.0 33.5 26.3 96 0.5 NNE 4 7 2 4 1007.8 1007.7 19.0
20/02:30am 26.6 33.8 26.1 97 0.4 CALM 0 0 0 0 1008.1 1008.0 19.0
20/02:00am 27.2 34.1 26.3 95 0.6 ENE 2 7 1 4 1008.0 1007.9 19.0
20/01:30am 27.0 33.7 25.9 94 0.8 E 2 6 1 3 1008.3 1008.2 19.0
20/01:00am 27.7 33.7 26.3 92 1.0 NNE 7 9 4 5 1008.5 1008.4 19.0
20/12:30am 27.3 34.0 25.9 92 1.0 ENE 2 6 1 3 1009.1 1009.0 19.0
20/12:00am 27.5 33.2 25.9 91 1.1 E 7 9 4 5 1009.6 1009.5 19.0
 
Date/Time
CST
Temp
°C
App
Temp
°C
Dew
Point
Rel
Hum
%
Delta-T
°C
Wind Press
QNH
hPa
Press
MSL
hPa
Rain
since 9 am
mm
Dir
 
Spd
km/h
Gust
km/h
Spd
kts
Gust
kts
19/11:30pm 28.2 33.6 26.0 88 1.6 ENE 9 9 5 5 1009.7 1009.6 19.0
19/11:00pm 28.2 33.6 25.2 84 2.1 ENE 6 9 3 5 1009.9 1009.8 19.0
19/10:30pm 28.3 33.4 24.9 82 2.4 ENE 7 9 4 5 1010.1 1010.0 19.0
19/10:00pm 28.6 32.7 24.6 79 2.8 NE 11 13 6 7 1009.7 1009.6 19.0
19/09:30pm 28.9 32.8 24.2 76 3.3 NE 11 15 6 8 1009.7 1009.6 19.0
19/09:00pm 29.1 33.7 24.2 75 3.4 NE 7 9 4 5 1009.8 1009.7 19.0
19/08:30pm 29.5 34.1 24.1 72 3.8 NE 7 9 4 5 1009.5 1009.4 19.0
19/08:00pm 29.9 33.5 23.8 70 4.2 ENE 11 13 6 7 1008.9 1008.8 19.0
19/07:30pm 30.4 33.5 22.8 64 5.2 ENE 11 13 6 7 1008.4 1008.3 19.0
19/07:00pm 31.3 34.6 22.6 60 5.9 ENE 9 13 5 7 1008.2 1008.1 19.0
19/06:30pm 32.0 35.2 23.0 59 6.2 ENE 11 15 6 8 1007.7 1007.6 19.0
19/06:00pm 32.7 36.4 24.5 62 5.8 ENE 13 15 7 8 1007.4 1007.3 19.0
19/05:30pm 33.2 36.6 24.1 59 6.4 ENE 13 17 7 9 1006.9 1006.8 19.0
19/05:00pm 33.3 37.9 24.7 60 6.1 ESE 9 13 5 7 1006.9 1006.8 19.0
19/04:30pm 32.4 37.9 26.2 70 4.4 ESE 9 13 5 7 1006.8 1006.7 19.0
19/04:00pm 31.0 34.7 25.8 74 3.7 ENE 17 28 9 15 1006.9 1006.8 19.0
19/03:30pm 33.9 39.6 25.9 63 5.7 N 7 11 4 6 1007.0 1006.9 18.2
19/03:00pm 33.8 38.7 24.7 59 6.4 S 7 11 4 6 1007.5 1007.4 18.2
19/02:30pm 33.0 38.1 25.5 64 5.3 SE 9 13 5 7 1008.1 1008.0 18.2
19/02:00pm 31.8 36.5 24.9 67 4.9 ENE 9 11 5 6 1008.6 1008.5 18.2
19/01:30pm 29.8 35.4 25.5 78 3.0 WSW 6 9 3 5 1009.2 1009.1 18.2
19/01:21pm 28.4 34.0 25.4 84 2.1 WSW 6 11 3 6 1009.3 1009.2 18.2
19/01:00pm 27.7 32.5 25.7 89 1.4 SSW 11 20 6 11 1009.9 1009.8 17.6
19/12:53pm 27.9 31.2 24.5 82 2.4 SE 15 22 8 12 1010.0 1009.9 10.0
19/12:50pm 28.4 31.4 23.3 74 3.5 SE 13 22 7 12 1009.7 1009.6 4.0
19/12:30pm 33.9 37.6 23.9 56 7.0 NW 11 20 6 11 1009.4 1009.3 0.0
19/12:00pm 34.1 38.6 24.6 57 6.7 WNW 9 17 5 9 1009.7 1009.6 0.0
19/11:30am 33.4 36.9 24.8 60 6.1 WNW 15 22 8 12 1010.5 1010.4 0.0
19/11:00am 32.7 37.1 25.0 64 5.4 W 11 17 6 9 1010.8 1010.7 0.0
19/10:30am 33.1 37.7 24.8 61 5.9 WSW 9 15 5 8 1010.9 1010.8 0.0
19/10:00am 33.0 37.6 24.7 61 5.8 WNW 9 17 5 9 1011.0 1010.9 0.0
19/09:30am 32.0 35.9 24.3 63 5.4 NNW 11 17 6 9 1011.2 1011.1 0.0
19/09:00am 31.9 35.7 24.7 65 5.1 NNW 13 20 7 11 1011.0 1010.9 0.0
19/08:30am 31.4 34.9 25.5 71 4.2 NNW 17 20 9 11 1010.9 1010.8 0.0
19/08:00am 30.5 34.2 25.1 73 3.8 NNW 15 20 8 11 1010.6 1010.5 0.0
19/07:30am 30.4 34.3 25.5 75 3.5 NNW 15 20 8 11 1010.3 1010.2 0.0
19/07:00am 29.9 34.3 25.6 78 3.0 NNW 13 19 7 10 1010.2 1010.1 0.0
19/06:30am 29.1 33.4 25.5 81 2.5 NNW 13 19 7 10 1009.8 1009.7 0.0
19/06:00am 29.0 33.9 25.8 83 2.3 NNW 11 15 6 8 1009.7 1009.6 0.0
19/05:30am 28.7 34.4 25.9 85 2.0 N 7 11 4 6 1009.1 1009.0 0.0
19/05:00am 28.6 33.7 25.6 84 2.1 NNW 9 11 5 6 1008.7 1008.6 0.0
19/04:30am 28.6 33.6 25.4 83 2.3 NNW 9 11 5 6 1008.5 1008.4 0.0
19/04:00am 28.6 33.3 25.0 81 2.5 N 9 15 5 8 1008.4 1008.3 0.0
19/03:30am 29.0 33.5 25.2 80 2.7 N 11 15 6 8 1008.3 1008.2 0.0
19/03:00am 29.0 33.1 25.2 80 2.7 N 13 17 7 9 1008.4 1008.3 0.0
19/02:30am 29.1 33.7 25.9 83 2.3 N 13 19 7 10 1008.4 1008.3 0.0
19/02:00am 29.2 33.8 26.0 83 2.3 N 13 17 7 9 1008.4 1008.3 0.0
19/01:30am 29.4 33.9 25.8 81 2.6 N 13 19 7 10 1008.4 1008.3 0.0
19/01:00am 29.3 34.6 25.9 82 2.4 NNE 9 15 5 8 1008.6 1008.5 0.0
19/12:30am 29.0 34.1 25.6 82 2.4 NE 9 15 5 8 1009.0 1008.9 0.0
19/12:00am 29.2 34.2 25.4 80 2.7 NE 9 13 5 7 1009.3 1009.2 0.0
 
Date/Time
CST
Temp
°C
App
Temp
°C
Dew
Point
Rel
Hum
%
Delta-T
°C
Wind Press
QNH
hPa
Press
MSL
hPa
Rain
since 9 am
mm
Dir
 
Spd
km/h
Gust
km/h
Spd
kts
Gust
kts
18/11:30pm 29.3 34.5 25.1 78 3.0 NE 7 11 4 6 1009.4 1009.3 0.0
18/11:00pm 29.5 33.4 24.8 76 3.3 NE 13 19 7 10 1009.2 1009.1 0.0
18/10:30pm 29.6 33.4 24.7 75 3.4 NE 13 17 7 9 1009.1 1009.0 0.0
18/10:00pm 29.7 34.2 24.6 74 3.6 NE 9 15 5 8 1008.9 1008.8 0.0
18/09:30pm 29.8 33.9 24.0 71 4.0 NE 9 13 5 7 1008.8 1008.7 0.0
18/09:00pm 30.2 33.1 23.9 69 4.4 ENE 15 19 8 10 1008.3 1008.2 0.0
18/08:30pm 30.6 32.9 23.5 66 4.9 ENE 17 24 9 13 1008.1 1008.0 0.0
18/08:00pm 30.9 33.6 22.8 62 5.5 ENE 13 19 7 10 1007.8 1007.7 0.0
18/07:30pm 31.5 34.0 23.1 61 5.8 ENE 15 24 8 13 1007.5 1007.4 0.0
18/07:00pm 32.7 33.9 22.2 54 7.2 ENE 19 26 10 14 1007.0 1006.9 0.0
18/06:30pm 34.3 36.4 22.4 50 8.2 ENE 15 19 8 10 1006.6 1006.5 0.0
18/06:00pm 35.2 37.7 23.2 49 8.4 NE 15 20 8 11 1005.9 1005.8 0.0
18/05:30pm 36.0 37.9 21.4 42 10.0 ENE 13 22 7 12 1005.9 1005.8 0.0
18/05:00pm 37.2 38.7 20.5 37 11.3 NE 13 19 7 10 1005.9 1005.8 0.0
18/04:30pm 36.6 38.4 19.5 36 11.4 E 9 15 5 8 1006.1 1006.0 0.0
18/04:00pm 35.7 39.0 22.6 46 9.0 ENE 9 13 5 7 1006.4 1006.3 0.0
18/03:30pm 35.7 39.3 23.0 48 8.8 S 9 17 5 9 1006.8 1006.7 0.0
18/03:00pm 35.9 38.2 20.6 41 10.3 N 9 13 5 7 1007.0 1006.9 0.0
18/02:30pm 36.9 37.3 20.6 38 11.0 NNW 19 26 10 14 1007.3 1007.2 0.0
18/02:00pm 36.3 35.9 20.1 38 10.9 NW 22 30 12 16 1007.6 1007.5 0.0
18/01:30pm 36.2 36.5 21.6 42 10.0 NW 22 30 12 16 1007.9 1007.8 0.0
18/01:00pm 35.9 37.1 22.1 44 9.5 WNW 19 26 10 14 1008.1 1008.0 0.0
18/12:30pm 35.7 38.1 24.3 51 8.0 NW 19 28 10 15 1008.5 1008.4 0.0
18/12:00pm 34.7 38.1 24.6 55 7.1 N 15 28 8 15 1008.7 1008.6 0.0
18/11:30am 34.3 37.8 24.2 55 7.1 NNW 13 24 7 13 1009.3 1009.2 0.0
18/11:00am 34.4 38.1 25.2 58 6.5 NW 15 24 8 13 1009.7 1009.6 0.0
18/10:30am 33.9 37.2 23.9 56 7.0 NW 13 22 7 12 1010.1 1010.0 0.0
18/10:00am 32.9 36.6 24.6 61 5.8 NNW 13 20 7 11 1010.0 1009.9 0.0
18/09:30am 32.2 35.6 25.3 67 4.9 NNW 17 24 9 13 1009.8 1009.7 0.0
18/09:00am 31.9 36.0 25.7 69 4.4 NNW 15 22 8 12 1009.8 1009.7 0.0
18/08:30am 31.6 36.2 25.9 72 4.1 NNE 13 19 7 10 1009.9 1009.8 0.0
18/08:00am 30.8 34.9 25.8 74 3.6 N 15 20 8 11 1009.7 1009.6 0.0
18/07:30am 30.4 34.8 25.7 76 3.3 N 13 17 7 9 1009.5 1009.4 0.0
18/07:00am 29.7 35.3 25.7 79 2.8 NE 7 11 4 6 1009.2 1009.1 0.0
18/06:30am 28.9 34.5 25.7 83 2.3 NNE 7 13 4 7 1008.5 1008.4 0.0
18/06:00am 28.8 34.6 25.8 84 2.1 NW 6 7 3 4 1008.1 1008.0 0.0
18/05:30am 29.0 34.3 25.8 83 2.3 N 9 13 5 7 1007.5 1007.4 0.0
18/05:00am 29.0 34.5 25.6 82 2.4 N 7 11 4 6 1007.4 1007.3 0.0
18/04:30am 29.2 34.7 25.6 81 2.5 NNW 7 9 4 5 1007.3 1007.2 0.0
18/04:00am 29.3 34.0 25.5 80 2.7 NNW 11 15 6 8 1007.1 1007.0 0.0
18/03:30am 29.3 33.6 25.5 80 2.7 N 13 17 7 9 1006.7 1006.6 0.0
18/03:00am 29.6 33.6 25.1 77 3.2 N 13 17 7 9 1006.4 1006.3 0.0
18/02:30am 29.8 33.7 24.9 75 3.4 N 13 20 7 11 1006.4 1006.3 0.0
18/02:00am 29.6 34.9 25.8 80 2.7 N 9 13 5 7 1006.6 1006.5 0.0
18/01:30am 29.7 34.8 26.1 81 2.6 N 11 15 6 8 1006.9 1006.8 0.0
18/01:00am 30.0 35.1 26.2 80 2.7 N 11 17 6 9 1007.5 1007.4 0.0
18/12:30am 30.1 35.3 26.3 80 2.7 N 11 15 6 8 1007.8 1007.7 0.0
18/12:00am 30.2 35.5 26.4 80 2.7 N 11 15 6 8 1008.4 1008.3 0.0
 
Date/Time
CST
Temp
°C
App
Temp
°C
Dew
Point
Rel
Hum
%
Delta-T
°C
Wind Press
QNH
hPa
Press
MSL
hPa
Rain
since 9 am
mm
Dir
 
Spd
km/h
Gust
km/h
Spd
kts
Gust
kts
17/11:30pm 30.3 34.3 26.2 79 2.9 NNE 17 22 9 12 1008.7 1008.6 0.0
17/11:00pm 30.1 34.8 25.6 77 3.2 NE 11 15 6 8 1008.8 1008.7 0.0
17/10:30pm 30.1 33.9 24.7 73 3.8 NE 13 20 7 11 1008.7 1008.6 0.0
17/10:00pm 30.3 34.1 24.7 72 3.9 NE 13 19 7 10 1008.2 1008.1 0.0
17/09:30pm 30.3 34.1 24.7 72 3.9 NE 13 17 7 9 1007.9 1007.8 0.0
17/09:00pm 30.4 34.4 25.0 73 3.8 NE 13 19 7 10 1007.2 1007.1 0.0
17/08:30pm 30.6 34.7 25.2 73 3.8 ENE 13 17 7 9 1006.6 1006.5 0.0
17/08:00pm 30.5 34.5 25.1 73 3.8 NE 13 19 7 10 1005.5 1005.4 0.0
17/07:30pm 31.2 35.1 24.8 69 4.5 NE 13 17 7 9 1005.2 1005.1 0.0
17/07:00pm 31.5 34.4 23.9 64 5.3 NE 15 24 8 13 1004.7 1004.6 0.0
17/06:30pm 32.5 35.9 24.0 61 5.9 NE 13 20 7 11 1004.7 1004.6 0.0
17/06:00pm 33.6 36.5 24.5 59 6.4 NNE 17 28 9 15 1004.3 1004.2 0.0
17/05:30pm 35.3 37.7 23.6 50 8.2 NNE 17 24 9 13 1004.1 1004.0 0.0
17/05:00pm 36.7 36.8 18.3 34 12.1 NE 15 20 8 11 1003.7 1003.6 0.0
17/04:30pm 36.7 36.6 17.8 32 12.3 NE 15 19 8 10 1003.6 1003.5 0.0
17/04:00pm 37.0 36.2 16.0 28 13.4 NNE 15 22 8 12 1003.8 1003.7 0.0
17/03:30pm 37.2 36.8 16.2 29 13.4 NE 13 20 7 11 1003.9 1003.8 0.0
17/03:00pm 36.8 37.3 18.4 34 12.1 NNW 13 20 7 11 1004.5 1004.4 0.0
17/02:30pm 37.1 38.1 19.5 35 11.8 N 13 20 7 11 1005.0 1004.9 0.0
17/02:00pm 36.6 37.0 18.2 34 12.0 NNW 13 24 7 13 1005.5 1005.4 0.0
17/01:30pm 36.5 35.9 16.6 30 12.8 NW 15 26 8 14 1005.9 1005.8 0.0
17/01:00pm 36.0 36.0 19.0 36 11.2 NNW 17 32 9 17 1006.4 1006.3 0.0
17/12:30pm 34.8 36.9 22.5 48 8.5 WNW 15 24 8 13 1006.7 1006.6 0.0
17/12:00pm 34.4 36.2 22.5 50 8.2 NW 17 26 9 14 1007.0 1006.9 0.0
17/11:30am 34.5 37.6 24.1 54 7.3 NW 15 24 8 13 1007.4 1007.3 0.0
17/11:00am 33.7 36.6 23.1 54 7.3 NNW 13 22 7 12 1008.1 1008.0 0.0
17/10:30am 33.0 36.4 24.7 61 5.9 NNW 15 19 8 10 1008.4 1008.3 0.0

Other Formats:

Comma delimited format used in spreadsheet applications
http://www.bom.gov.au/fwo/IDD60801/IDD60801.94153.axf

JavaScript Object Notation format (JSON) in row-major order
http://www.bom.gov.au/fwo/IDD60801/IDD60801.94153.json